Time;durP1;ratioP1;P1;durP2;ratioP2;P2;SDS_P1;SDS_P2;PMS_P1;PMS_P2;Temp;Humidity;BMP_temperature;BMP_pressure;BME280_temperature;BME280_humidity;BME280_pressure;Samples;Min_cycle;Max_cycle;Signal;HPM_P1;HPM_P2
2022/05/31 00:01:10;;;;;;;;;;;;;;;10.71;52.35;100659.81;4987828;27;118646;-64
2022/05/31 00:03:36;;;;;;;;;;;;;;;10.66;52.77;100651.72;4999079;27;127391;-69
2022/05/31 00:06:02;;;;;;;;;;;;;;;10.60;52.99;100658.16;5001281;27;98658;-63
2022/05/31 00:08:28;;;;;;;;;;;;;;;10.54;53.03;100657.34;5001784;27;98240;-63
2022/05/31 00:10:54;;;;;;;;;;;;;;;10.49;52.61;100656.47;4986300;27;117163;-70
2022/05/31 00:13:20;;;;;;;;;;;;;;;10.44;52.62;100651.88;5000888;27;128284;-63
2022/05/31 00:15:46;;;;;;;;;;;;;;;10.41;52.76;100649.69;4979099;28;127211;-69
2022/05/31 00:18:13;;;;;;;;;;;;;;;10.35;53.53;100641.88;4995407;27;125589;-63
2022/05/31 00:20:39;;;;;;;;;;;;;;;10.31;53.35;100641.59;4999007;27;98091;-63
2022/05/31 00:23:06;;;;;;;;;;;;;;;10.28;52.93;100645.59;4979515;28;128310;-69
2022/05/31 00:25:32;;;;;;;;;;;;;;;10.27;53.24;100641.28;4964620;28;108001;-69
2022/05/31 00:27:59;;;;;;;;;;;;;;;10.27;53.27;100646.69;4979016;28;128235;-69
2022/05/31 00:30:25;;;;;;;;;;;;;;;10.24;53.58;100643.66;4980312;27;98209;-63
2022/05/31 00:32:50;;;;;;;;;;;;;;;10.21;53.34;100649.56;4998609;27;98665;-63
2022/05/31 00:35:28;;;;;;;;;;;;;;;10.16;53.31;100646.84;4998586;27;129145;-63
2022/05/31 00:37:54;;;;;;;;;;;;;;;10.13;53.75;100650.84;4991979;27;98141;-67
2022/05/31 00:40:21;;;;;;;;;;;;;;;10.08;53.71;100650.84;4978975;27;97852;-68
2022/05/31 00:42:59;;;;;;;;;;;;;;;10.04;54.03;100649.72;4990363;27;112300;-63
2022/05/31 00:45:49;;;;;;;;;;;;;;;10.00;54.09;100654.00;4986499;27;98432;-68
2022/05/31 00:48:20;;;;;;;;;;;;;;;9.97;53.36;100659.91;4981931;27;98122;-69
2022/05/31 00:51:08;;;;;;;;;;;;;;;9.92;53.85;100658.00;4990997;27;117053;-63
2022/05/31 00:53:44;;;;;;;;;;;;;;;9.88;53.42;100654.19;4964764;28;99530;-63
2022/05/31 00:56:14;;;;;;;;;;;;;;;9.83;53.35;100656.84;4985220;27;117350;-63
2022/05/31 00:58:44;;;;;;;;;;;;;;;9.81;53.52;100657.09;4980064;27;116308;-63
2022/05/31 01:01:11;;;;;;;;;;;;;;;9.77;53.44;100653.31;4997556;27;117516;-69
2022/05/31 01:03:39;;;;;;;;;;;;;;;9.74;53.33;100661.88;4979173;28;116259;-69
2022/05/31 01:06:05;;;;;;;;;;;;;;;9.71;53.62;100653.53;4961565;28;125710;-69
2022/05/31 01:08:32;;;;;;;;;;;;;;;9.68;53.90;100659.44;4980247;27;124489;-70
2022/05/31 01:10:57;;;;;;;;;;;;;;;9.65;53.53;100659.94;4983230;27;97827;-69
2022/05/31 01:13:23;;;;;;;;;;;;;;;9.61;53.78;100654.25;5001272;27;125869;-69
2022/05/31 01:15:50;;;;;;;;;;;;;;;9.55;53.32;100653.41;4998855;27;128879;-63
2022/05/31 01:18:16;;;;;;;;;;;;;;;9.52;53.49;100651.22;5001194;27;98106;-63
2022/05/31 01:20:42;;;;;;;;;;;;;;;9.50;53.55;100660.59;4983872;27;97748;-70
2022/05/31 01:23:11;;;;;;;;;;;;;;;9.47;54.19;100656.56;4980349;28;126649;-63
2022/05/31 01:25:37;;;;;;;;;;;;;;;9.45;54.11;100656.00;5000947;27;98725;-63
2022/05/31 01:28:41;;;;;;;;;;;;;;;9.44;53.85;100656.25;4999238;27;101733;-66
2022/05/31 01:31:18;;;;;;;;;;;;;;;9.38;54.05;100655.38;5000518;27;98125;-69
2022/05/31 01:33:47;;;;;;;;;;;;;;;9.34;54.16;100663.16;4970086;27;128848;-70
2022/05/31 01:36:49;;;;;;;;;;;;;;;9.31;53.90;100660.16;4962313;27;119611;-63
2022/05/31 01:39:37;;;;;;;;;;;;;;;9.27;54.37;100657.16;4963347;27;97768;-69
2022/05/31 01:42:03;;;;;;;;;;;;;;;9.26;53.77;100665.47;4999127;27;97672;-69
2022/05/31 01:44:30;;;;;;;;;;;;;;;9.24;54.58;100675.69;4989237;27;99178;-63
2022/05/31 01:46:58;;;;;;;;;;;;;;;9.20;54.08;100682.66;4961569;28;119010;-63
2022/05/31 01:49:24;;;;;;;;;;;;;;;9.16;54.41;100679.66;4979569;27;97905;-63
2022/05/31 01:51:50;;;;;;;;;;;;;;;9.15;53.96;100680.69;4980540;28;118058;-63
2022/05/31 01:54:17;;;;;;;;;;;;;;;9.15;54.34;100680.69;4977999;27;127601;-69
2022/05/31 01:56:43;;;;;;;;;;;;;;;9.15;53.99;100687.94;4980046;27;119567;-63
2022/05/31 01:59:09;;;;;;;;;;;;;;;9.13;53.64;100684.72;4984045;27;98198;-63
2022/05/31 02:01:35;;;;;;;;;;;;;;;9.10;54.26;100686.84;4999259;27;98095;-63
2022/05/31 02:04:01;;;;;;;;;;;;;;;9.09;54.23;100685.22;4981187;27;122892;-69
2022/05/31 02:06:33;;;;;;;;;;;;;;;9.06;54.31;100683.03;4998828;27;98426;-69
2022/05/31 02:08:59;;;;;;;;;;;;;;;9.04;54.01;100679.78;4998935;27;98286;-69
2022/05/31 02:11:25;;;;;;;;;;;;;;;9.03;53.81;100675.44;4980772;27;99835;-63
2022/05/31 02:13:50;;;;;;;;;;;;;;;9.01;54.38;100677.59;4991006;27;114998;-69
2022/05/31 02:16:16;;;;;;;;;;;;;;;9.01;54.08;100679.47;4999594;27;128306;-63
2022/05/31 02:21:35;;;;;;;;;;;;;;;8.97;54.27;100678.34;4959968;28;98013;-62
2022/05/31 02:24:04;;;;;;;;;;;;;;;8.94;54.57;100687.72;4946951;27;98489;-69
2022/05/31 02:26:30;;;;;;;;;;;;;;;8.90;54.30;100691.97;4979674;27;121109;-69
2022/05/31 02:28:56;;;;;;;;;;;;;;;8.87;54.29;100683.59;4984317;27;97989;-69
2022/05/31 02:31:23;;;;;;;;;;;;;;;8.83;54.32;100692.16;5000283;27;117996;-69
2022/05/31 02:33:49;;;;;;;;;;;;;;;8.78;54.53;100688.59;4984660;27;98863;-69
2022/05/31 02:36:15;;;;;;;;;;;;;;;8.75;54.64;100695.28;4983780;27;98028;-63
2022/05/31 02:38:41;;;;;;;;;;;;;;;8.73;54.63;100691.25;4975358;27;126424;-63
2022/05/31 02:41:07;;;;;;;;;;;;;;;8.71;54.74;100690.66;4984672;27;117406;-63
2022/05/31 02:43:33;;;;;;;;;;;;;;;8.70;55.13;100689.03;4997106;27;127832;-69
2022/05/31 02:46:00;;;;;;;;;;;;;;;8.67;54.55;100684.97;5000506;27;127971;-70
2022/05/31 02:48:26;;;;;;;;;;;;;;;8.65;54.83;100686.31;4996694;27;98847;-69
2022/05/31 02:50:52;;;;;;;;;;;;;;;8.60;54.76;100695.09;4990424;27;98259;-63
2022/05/31 02:53:18;;;;;;;;;;;;;;;8.55;54.76;100686.97;5002999;27;128463;-62
2022/05/31 02:55:44;;;;;;;;;;;;;;;8.47;54.83;100690.06;5001842;27;128959;-69
2022/05/31 02:58:10;;;;;;;;;;;;;;;8.40;54.58;100690.25;5002615;27;98213;-69
2022/05/31 03:00:36;;;;;;;;;;;;;;;8.34;55.12;100692.03;4980095;27;98111;-69
2022/05/31 03:03:02;;;;;;;;;;;;;;;8.26;55.02;100687.06;5002313;27;127271;-62
2022/05/31 03:05:27;;;;;;;;;;;;;;;8.21;54.88;100686.97;5002635;27;125974;-62
2022/05/31 03:07:53;;;;;;;;;;;;;;;8.17;55.43;100685.84;5002316;27;127264;-62
2022/05/31 03:10:19;;;;;;;;;;;;;;;8.12;55.08;100683.91;4990458;27;97926;-69
2022/05/31 03:12:45;;;;;;;;;;;;;;;8.06;55.26;100679.53;4981436;28;100522;-69
2022/05/31 03:15:13;;;;;;;;;;;;;;;8.05;54.84;100682.44;4993161;27;98423;-62
2022/05/31 03:17:48;;;;;;;;;;;;;;;8.03;55.33;100690.75;5001236;27;120679;-63
2022/05/31 03:20:30;;;;;;;;;;;;;;;8.02;55.24;100691.81;4992117;27;115604;-63
2022/05/31 03:22:59;;;;;;;;;;;;;;;8.01;55.22;100692.84;4980736;28;98655;-63
2022/05/31 03:25:26;;;;;;;;;;;;;;;8.02;55.63;100694.50;4998648;27;120333;-62
2022/05/31 03:27:53;;;;;;;;;;;;;;;8.05;55.14;100682.44;5001478;27;123592;-69
2022/05/31 03:30:19;;;;;;;;;;;;;;;8.10;55.38;100677.16;5002628;27;97868;-62
2022/05/31 03:32:45;;;;;;;;;;;;;;;8.14;55.14;100686.38;4998513;27;127955;-69
2022/05/31 03:35:11;;;;;;;;;;;;;;;8.16;55.23;100676.16;4999948;27;98909;-69
2022/05/31 03:37:38;;;;;;;;;;;;;;;8.19;55.19;100680.25;4996692;27;125149;-63
2022/05/31 03:40:05;;;;;;;;;;;;;;;8.21;54.83;100686.16;5001126;27;98221;-69
2022/05/31 03:42:31;;;;;;;;;;;;;;;8.20;55.37;100682.69;5002018;27;98429;-63
2022/05/31 03:44:57;;;;;;;;;;;;;;;8.22;55.06;100683.25;4993016;27;98346;-62
2022/05/31 03:47:23;;;;;;;;;;;;;;;8.25;55.41;100687.31;5000124;27;127464;-70
2022/05/31 03:49:49;;;;;;;;;;;;;;;8.25;55.32;100682.78;4992183;27;117342;-69
2022/05/31 03:52:14;;;;;;;;;;;;;;;8.30;55.22;100679.34;5000304;27;127988;-69
2022/05/31 03:54:40;;;;;;;;;;;;;;;8.37;55.10;100680.03;4992863;27;123239;-69
2022/05/31 03:57:07;;;;;;;;;;;;;;;8.44;55.51;100688.69;5001149;27;97749;-62
2022/05/31 03:59:36;;;;;;;;;;;;;;;8.48;55.50;100686.31;5001261;27;115280;-63
2022/05/31 04:02:04;;;;;;;;;;;;;;;8.51;55.33;100681.28;5002778;27;98556;-69
2022/05/31 04:04:29;;;;;;;;;;;;;;;8.54;55.32;100683.47;4984920;27;99135;-63
2022/05/31 04:06:55;;;;;;;;;;;;;;;8.60;55.46;100689.72;4988168;27;127988;-63
2022/05/31 04:09:21;;;;;;;;;;;;;;;8.67;55.40;100690.34;5002836;27;97826;-62
2022/05/31 04:11:47;;;;;;;;;;;;;;;8.72;55.41;100692.28;5001354;27;125724;-63
2022/05/31 04:14:13;;;;;;;;;;;;;;;8.74;56.18;100687.47;4989940;27;99166;-69
2022/05/31 04:16:39;;;;;;;;;;;;;;;8.75;55.63;100684.53;4980551;28;128708;-69
2022/05/31 04:19:05;;;;;;;;;;;;;;;8.77;55.74;100689.69;4979619;27;117494;-62
2022/05/31 04:21:31;;;;;;;;;;;;;;;8.79;55.88;100696.41;4978000;28;126943;-69
2022/05/31 04:24:01;;;;;;;;;;;;;;;8.78;55.75;100694.78;4983338;27;110391;-62
2022/05/31 04:26:31;;;;;;;;;;;;;;;8.80;56.14;100698.06;4984453;27;98058;-69
2022/05/31 04:28:57;;;;;;;;;;;;;;;8.84;56.21;100693.81;4982125;27;98520;-63
2022/05/31 04:31:23;;;;;;;;;;;;;;;8.92;56.12;100697.94;4988040;27;98939;-69
2022/05/31 04:33:48;;;;;;;;;;;;;;;9.03;55.62;100691.59;4986500;27;124619;-62
2022/05/31 04:36:16;;;;;;;;;;;;;;;9.14;56.08;100686.34;4979406;27;127521;-63
2022/05/31 04:38:41;;;;;;;;;;;;;;;9.25;56.14;100696.16;4977094;27;114422;-69
2022/05/31 04:41:11;;;;;;;;;;;;;;;9.36;55.22;100684.44;4977673;28;99019;-62
2022/05/31 04:43:37;;;;;;;;;;;;;;;9.50;55.36;100688.31;4959401;28;128927;-63
2022/05/31 04:46:14;;;;;;;;;;;;;;;9.63;55.80;100697.03;4976453;28;125352;-69
2022/05/31 04:48:40;;;;;;;;;;;;;;;9.71;55.74;100697.41;4978694;27;98198;-63
2022/05/31 04:51:06;;;;;;;;;;;;;;;9.81;55.31;100697.47;4970585;28;128693;-62
2022/05/31 04:53:32;;;;;;;;;;;;;;;9.94;55.13;100706.19;4978499;27;98328;-69
2022/05/31 04:56:06;;;;;;;;;;;;;;;10.05;54.94;100697.94;4979260;27;98466;-62
2022/05/31 04:58:32;;;;;;;;;;;;;;;10.23;55.79;100698.63;4978464;27;98082;-63
2022/05/31 05:00:59;;;;;;;;;;;;;;;10.41;54.96;100698.22;4979415;27;98319;-69
2022/05/31 05:03:25;;;;;;;;;;;;;;;10.47;55.27;100694.50;4980165;27;99249;-63
2022/05/31 05:05:51;;;;;;;;;;;;;;;10.55;54.93;100694.00;4974105;27;127029;-63
2022/05/31 05:08:17;;;;;;;;;;;;;;;10.66;55.33;100691.34;4978244;28;100052;-63
2022/05/31 05:10:46;;;;;;;;;;;;;;;10.75;55.12;100697.88;4980185;28;126919;-63
2022/05/31 05:13:12;;;;;;;;;;;;;;;10.87;54.55;100700.34;4984446;27;108205;-62
2022/05/31 05:15:39;;;;;;;;;;;;;;;11.00;54.80;100699.84;5000609;27;103161;-63
2022/05/31 05:18:05;;;;;;;;;;;;;;;11.21;54.89;100692.66;5000243;27;97853;-69
2022/05/31 05:20:36;;;;;;;;;;;;;;;11.52;54.46;100696.22;4980405;27;126673;-63
2022/05/31 05:23:06;;;;;;;;;;;;;;;11.86;53.97;100696.53;4999931;27;98678;-63
2022/05/31 05:25:32;;;;;;;;;;;;;;;12.19;53.76;100688.97;4995387;27;99964;-63
2022/05/31 05:27:58;;;;;;;;;;;;;;;12.36;53.61;100689.47;4981682;28;98126;-63
2022/05/31 05:30:39;;;;;;;;;;;;;;;12.55;53.54;100687.00;4981329;27;98803;-63
2022/05/31 05:33:06;;;;;;;;;;;;;;;12.82;53.22;100685.81;4981309;27;98537;-63
2022/05/31 05:35:32;;;;;;;;;;;;;;;13.01;52.90;100686.81;5000207;27;98403;-69
2022/05/31 05:37:59;;;;;;;;;;;;;;;13.19;52.83;100690.78;4992297;27;97849;-69
2022/05/31 05:40:25;;;;;;;;;;;;;;;13.38;52.45;100685.56;4980727;28;98492;-69
2022/05/31 05:42:51;;;;;;;;;;;;;;;13.59;52.22;100680.81;4989861;27;121698;-63
2022/05/31 05:45:18;;;;;;;;;;;;;;;13.99;51.99;100677.78;4998107;27;127495;-63
2022/05/31 05:47:44;;;;;;;;;;;;;;;14.46;51.51;100675.41;4997695;27;97825;-63
2022/05/31 05:50:10;;;;;;;;;;;;;;;14.88;51.12;100671.16;4978007;27;123351;-63
2022/05/31 05:52:36;;;;;;;;;;;;;;;15.58;50.08;100676.69;4980237;28;120392;-69
2022/05/31 05:55:04;;;;;;;;;;;;;;;15.99;49.27;100667.06;4993796;27;124362;-63
2022/05/31 05:57:30;;;;;;;;;;;;;;;15.66;49.97;100680.66;5001561;27;98167;-69
2022/05/31 05:59:56;;;;;;;;;;;;;;;15.57;50.03;100671.56;4967277;28;98721;-63
2022/05/31 06:02:29;;;;;;;;;;;;;;;15.64;49.97;100678.22;4971634;27;98974;-69
2022/05/31 06:05:20;;;;;;;;;;;;;;;15.94;49.65;100671.50;4994808;27;98124;-64
2022/05/31 06:07:47;;;;;;;;;;;;;;;16.15;49.34;100674.69;4998649;27;112179;-69
2022/05/31 06:10:20;;;;;;;;;;;;;;;16.78;48.43;100678.69;4980993;27;128809;-63
2022/05/31 06:12:55;;;;;;;;;;;;;;;17.33;47.42;100675.03;4979925;27;124054;-69
2022/05/31 06:15:22;;;;;;;;;;;;;;;17.64;47.01;100680.56;4979299;27;121769;-63
2022/05/31 06:17:49;;;;;;;;;;;;;;;18.14;46.23;100681.25;4981298;27;103167;-69
2022/05/31 06:20:15;;;;;;;;;;;;;;;19.03;45.11;100684.84;4995481;27;126085;-69
2022/05/31 06:22:41;;;;;;;;;;;;;;;19.35;44.76;100678.13;5000295;27;104522;-69
2022/05/31 06:25:08;;;;;;;;;;;;;;;20.71;42.63;100678.50;4962249;28;127054;-63
2022/05/31 06:27:34;;;;;;;;;;;;;;;21.08;42.67;100687.78;4974966;27;109026;-66
2022/05/31 06:30:00;;;;;;;;;;;;;;;21.39;42.18;100697.59;4981265;27;99659;-64
2022/05/31 06:32:26;;;;;;;;;;;;;;;22.11;41.20;100689.16;4985243;27;127265;-63
2022/05/31 06:34:52;;;;;;;;;;;;;;;23.37;39.32;100687.34;4985750;27;126922;-70
2022/05/31 06:37:18;;;;;;;;;;;;;;;23.40;39.57;100692.16;4976608;27;115514;-69
2022/05/31 06:39:45;;;;;;;;;;;;;;;23.30;39.69;100683.59;4971487;27;119159;-69
2022/05/31 06:42:11;;;;;;;;;;;;;;;23.71;38.95;100676.97;4981413;27;98320;-63
2022/05/31 06:44:38;;;;;;;;;;;;;;;23.77;38.97;100684.59;4997080;27;107729;-63
2022/05/31 06:47:04;;;;;;;;;;;;;;;23.84;38.70;100685.94;5000135;27;97831;-69
2022/05/31 06:49:31;;;;;;;;;;;;;;;23.92;38.35;100679.47;4998033;27;98789;-69
2022/05/31 06:57:32;;;;;;;;;;;;;;;24.41;36.79;100679.22;4977060;28;97879;-63
2022/05/31 06:59:58;;;;;;;;;;;;;;;24.38;36.93;100677.97;4979552;27;128834;-63
2022/05/31 07:02:24;;;;;;;;;;;;;;;24.36;36.80;100671.97;4980251;27;98397;-69
2022/05/31 07:04:50;;;;;;;;;;;;;;;24.36;36.45;100666.47;4978037;27;104590;-63
2022/05/31 07:07:16;;;;;;;;;;;;;;;24.56;36.12;100672.88;4976975;27;118980;-69
2022/05/31 07:09:41;;;;;;;;;;;;;;;24.72;35.54;100664.63;4985136;27;98466;-64
2022/05/31 07:12:08;;;;;;;;;;;;;;;24.91;35.73;100664.63;4986961;27;124349;-69
2022/05/31 07:14:33;;;;;;;;;;;;;;;25.30;35.16;100663.94;4983432;27;98127;-64
2022/05/31 07:16:59;;;;;;;;;;;;;;;25.61;34.88;100661.00;4983005;27;117236;-70
2022/05/31 07:19:25;;;;;;;;;;;;;;;25.89;34.22;100658.03;4994452;27;106357;-70
2022/05/31 07:21:51;;;;;;;;;;;;;;;25.91;33.89;100655.72;5003096;27;109050;-70
2022/05/31 07:24:18;;;;;;;;;;;;;;;26.15;33.09;100659.28;5003618;27;97867;-69
2022/05/31 07:26:45;;;;;;;;;;;;;;;26.26;32.40;100657.50;5002951;27;98019;-64
2022/05/31 07:29:12;;;;;;;;;;;;;;;26.49;32.73;100645.63;4997610;27;118531;-64
2022/05/31 07:31:38;;;;;;;;;;;;;;;26.89;32.00;100642.31;5002960;27;98277;-64
2022/05/31 07:34:04;;;;;;;;;;;;;;;27.00;31.86;100636.91;5002738;27;98706;-64
2022/05/31 07:36:30;;;;;;;;;;;;;;;26.60;32.10;100639.09;5002026;27;118661;-64
2022/05/31 07:38:56;;;;;;;;;;;;;;;26.63;31.85;100637.56;4988602;27;128481;-70
2022/05/31 07:41:22;;;;;;;;;;;;;;;27.16;31.72;100629.25;4981023;27;128556;-70
2022/05/31 07:43:48;;;;;;;;;;;;;;;27.70;31.17;100632.63;4998043;27;126371;-70
2022/05/31 07:46:14;;;;;;;;;;;;;;;28.23;30.28;100641.47;5002961;27;98006;-64
2022/05/31 07:48:40;;;;;;;;;;;;;;;28.59;30.03;100639.00;4991068;27;105909;-64
2022/05/31 07:51:06;;;;;;;;;;;;;;;28.91;29.53;100632.84;4982985;27;126571;-64
2022/05/31 07:53:32;;;;;;;;;;;;;;;29.02;29.17;100623.44;4982841;28;98779;-64
2022/05/31 07:56:00;;;;;;;;;;;;;;;29.72;28.97;100628.88;4962625;27;98135;-70
2022/05/31 07:58:32;;;;;;;;;;;;;;;28.74;29.10;100624.06;4978480;27;99609;-64
2022/05/31 08:01:03;;;;;;;;;;;;;;;29.82;28.26;100626.09;4982036;28;99329;-70
2022/05/31 08:03:29;;;;;;;;;;;;;;;30.28;27.96;100621.78;4983585;27;97919;-64
2022/05/31 08:05:56;;;;;;;;;;;;;;;30.68;27.68;100611.38;4982456;27;97934;-70
2022/05/31 08:08:21;;;;;;;;;;;;;;;31.37;26.28;100621.13;4963796;27;98267;-65
2022/05/31 08:10:47;;;;;;;;;;;;;;;31.85;26.08;100623.25;4981454;28;127543;-64
2022/05/31 08:13:13;;;;;;;;;;;;;;;32.65;25.76;100620.16;4983783;27;98566;-70
2022/05/31 08:15:39;;;;;;;;;;;;;;;33.16;25.11;100609.25;4982433;27;117026;-70
2022/05/31 08:18:05;;;;;;;;;;;;;;;33.66;24.06;100614.94;4980329;27;127267;-70
2022/05/31 08:20:31;;;;;;;;;;;;;;;34.29;23.21;100613.56;4981606;27;98878;-64
2022/05/31 08:22:57;;;;;;;;;;;;;;;34.90;23.13;100602.84;4989515;27;124023;-70
2022/05/31 08:25:23;;;;;;;;;;;;;;;35.47;22.69;100605.66;5001380;27;98100;-63
2022/05/31 08:27:49;;;;;;;;;;;;;;;35.99;21.55;100604.88;5002266;27;99241;-72
2022/05/31 08:30:15;;;;;;;;;;;;;;;35.31;20.97;100590.38;4984433;27;110518;-69
2022/05/31 08:32:41;;;;;;;;;;;;;;;35.53;21.70;100584.31;4981936;27;127716;-69
2022/05/31 08:35:07;;;;;;;;;;;;;;;35.96;21.44;100581.28;4982526;27;115785;-69
2022/05/31 08:37:33;;;;;;;;;;;;;;;36.50;20.96;100579.91;4988473;27;99159;-69
2022/05/31 08:39:59;;;;;;;;;;;;;;;36.94;20.30;100577.47;4994224;27;97864;-63
2022/05/31 08:42:45;;;;;;;;;;;;;;;37.39;20.23;100574.50;5001240;27;98006;-69
2022/05/31 08:45:57;;;;;;;;;;;;;;;38.01;19.83;100574.94;4970828;28;98079;-63
2022/05/31 08:48:35;;;;;;;;;;;;;;;38.81;18.76;100578.59;4957543;27;99377;-63
2022/05/31 08:57:01;;;;;;;;;;;;;;;40.13;18.26;100547.97;4980394;28;97850;-64
2022/05/31 08:59:33;;;;;;;;;;;;;;;40.75;17.53;100536.28;4971310;27;99131;-64
2022/05/31 09:02:01;;;;;;;;;;;;;;;40.86;17.23;100542.22;5000540;27;128705;-64
2022/05/31 09:04:38;;;;;;;;;;;;;;;41.16;17.47;100542.47;4998305;27;98053;-71
2022/05/31 09:07:09;;;;;;;;;;;;;;;41.49;17.43;100536.84;5000753;27;98122;-65
2022/05/31 09:09:56;;;;;;;;;;;;;;;41.95;17.23;100530.91;4977478;27;98387;-71
2022/05/31 09:12:32;;;;;;;;;;;;;;;42.30;16.79;100531.09;4999020;27;127170;-71
2022/05/31 09:15:17;;;;;;;;;;;;;;;42.39;16.46;100528.19;5000004;27;99423;-64
2022/05/31 09:17:55;;;;;;;;;;;;;;;39.48;18.56;100511.16;4999666;27;97982;-70
2022/05/31 09:20:43;;;;;;;;;;;;;;;39.38;18.05;100508.75;4985406;27;98639;-64
2022/05/31 09:23:09;;;;;;;;;;;;;;;39.32;18.37;100507.81;4964066;28;98504;-64
2022/05/31 09:25:39;;;;;;;;;;;;;;;39.07;18.18;100517.22;4978762;27;113556;-70
2022/05/31 09:28:26;;;;;;;;;;;;;;;38.68;18.69;100502.63;4982879;27;98064;-71
2022/05/31 09:30:52;;;;;;;;;;;;;;;38.54;18.40;100504.72;4990476;27;123877;-71
2022/05/31 09:33:32;;;;;;;;;;;;;;;38.43;19.10;100495.13;4978289;28;128244;-64
2022/05/31 09:36:17;;;;;;;;;;;;;;;39.19;18.54;100502.28;4980002;27;98901;-65
2022/05/31 09:39:05;;;;;;;;;;;;;;;39.82;17.90;100497.31;4988615;27;98156;-65
2022/05/31 09:41:51;;;;;;;;;;;;;;;39.35;18.33;100492.81;4978113;28;124718;-71
2022/05/31 09:44:33;;;;;;;;;;;;;;;40.50;17.25;100478.16;4970651;27;98704;-65
2022/05/31 09:47:06;;;;;;;;;;;;;;;38.92;18.07;100474.78;4996739;27;97970;-65
2022/05/31 09:49:39;;;;;;;;;;;;;;;40.59;17.01;100477.34;4979724;27;113581;-65
2022/05/31 09:52:12;;;;;;;;;;;;;;;41.52;16.38;100487.81;4981039;27;98371;-65
2022/05/31 09:58:12;;;;;;;;;;;;;;;40.25;16.95;100470.84;4960567;28;97697;-68
2022/05/31 10:00:56;;;;;;;;;;;;;;;38.54;18.02;100454.06;4993649;27;97852;-65
2022/05/31 10:03:23;;;;;;;;;;;;;;;36.68;19.26;100447.50;4999275;27;98367;-72
2022/05/31 10:05:49;;;;;;;;;;;;;;;35.78;19.90;100455.59;4979606;27;99178;-65
2022/05/31 10:08:17;;;;;;;;;;;;;;;35.14;20.63;100452.38;4981759;27;98159;-64
2022/05/31 10:10:46;;;;;;;;;;;;;;;35.06;20.35;100450.97;4981480;27;98130;-72
2022/05/31 10:13:13;;;;;;;;;;;;;;;37.57;18.74;100453.91;4979613;28;98170;-72
2022/05/31 10:15:45;;;;;;;;;;;;;;;38.71;18.67;100457.47;4978816;27;99296;-72
2022/05/31 10:18:13;;;;;;;;;;;;;;;40.25;17.77;100456.72;4981272;27;98826;-71
2022/05/31 10:20:52;;;;;;;;;;;;;;;41.34;16.55;100453.97;4984207;27;112374;-72
2022/05/31 10:23:20;;;;;;;;;;;;;;;42.02;15.72;100451.31;4979355;28;126797;-65
2022/05/31 10:25:54;;;;;;;;;;;;;;;42.60;15.61;100446.97;4979635;27;116683;-65
2022/05/31 10:28:37;;;;;;;;;;;;;;;40.92;16.29;100435.03;4993854;27;97822;-65
2022/05/31 10:31:06;;;;;;;;;;;;;;;38.46;17.48;100427.44;4995229;27;99402;-70
2022/05/31 10:33:34;;;;;;;;;;;;;;;37.42;18.05;100418.31;4999373;27;126009;-65
2022/05/31 10:36:15;;;;;;;;;;;;;;;37.32;18.62;100421.00;4978798;27;99007;-66
2022/05/31 10:38:43;;;;;;;;;;;;;;;35.71;19.90;100418.56;4981624;27;97952;-64
2022/05/31 10:41:12;;;;;;;;;;;;;;;34.60;19.91;100415.59;4997066;27;98709;-72
2022/05/31 10:43:40;;;;;;;;;;;;;;;34.01;20.98;100413.59;4980672;27;126061;-71
2022/05/31 10:46:31;;;;;;;;;;;;;;;34.26;20.69;100424.28;4992601;27;99061;-72
2022/05/31 10:49:05;;;;;;;;;;;;;;;35.02;20.42;100410.25;4980812;27;98724;-72
2022/05/31 10:51:53;;;;;;;;;;;;;;;34.47;20.70;100407.06;4982502;27;97790;-72
2022/05/31 10:54:35;;;;;;;;;;;;;;;35.79;19.86;100409.50;4981827;27;98348;-71
2022/05/31 10:57:06;;;;;;;;;;;;;;;33.83;20.79;100414.69;4981959;28;117229;-64
2022/05/31 10:59:43;;;;;;;;;;;;;;;32.75;21.59;100401.66;4986298;27;103345;-72
2022/05/31 11:02:09;;;;;;;;;;;;;;;31.78;22.43;100406.78;5002158;27;97981;-72
2022/05/31 11:04:47;;;;;;;;;;;;;;;31.03;23.24;100385.13;5003001;27;98580;-64
2022/05/31 11:11:27;;;;;;;;;;;;;;;30.31;23.45;100393.06;5004022;27;98424;-64
2022/05/31 11:13:53;;;;;;;;;;;;;;;30.87;23.25;100387.63;4971017;27;97947;-72
2022/05/31 11:16:28;;;;;;;;;;;;;;;29.69;24.25;100388.06;4981253;28;101118;-64
2022/05/31 11:19:16;;;;;;;;;;;;;;;29.01;24.71;100386.06;4964894;27;98409;-71
2022/05/31 11:21:47;;;;;;;;;;;;;;;28.47;25.59;100389.88;4960516;28;97797;-64
2022/05/31 11:24:32;;;;;;;;;;;;;;;28.01;25.50;100380.13;4971866;27;99993;-64
2022/05/31 11:27:14;;;;;;;;;;;;;;;27.68;25.97;100383.88;5002491;27;99362;-63
2022/05/31 11:29:59;;;;;;;;;;;;;;;27.61;26.03;100381.84;4996089;27;124917;-63
2022/05/31 11:32:25;;;;;;;;;;;;;;;28.38;25.40;100385.50;4983362;27;98308;-64
2022/05/31 11:35:09;;;;;;;;;;;;;;;30.16;24.24;100374.88;4993252;27;98051;-72
2022/05/31 11:38:03;;;;;;;;;;;;;;;32.05;23.32;100379.03;4994929;27;98476;-63
2022/05/31 11:40:48;;;;;;;;;;;;;;;32.57;23.01;100378.78;4977250;27;98276;-64
2022/05/31 11:43:31;;;;;;;;;;;;;;;33.76;22.40;100375.72;5002714;27;97744;-71
2022/05/31 11:46:21;;;;;;;;;;;;;;;34.43;21.55;100364.41;4983178;27;98023;-64
2022/05/31 11:49:03;;;;;;;;;;;;;;;34.88;21.31;100367.34;4981946;27;98308;-64
2022/05/31 11:51:41;;;;;;;;;;;;;;;33.95;22.39;100365.75;4980900;27;99140;-63
2022/05/31 11:54:41;;;;;;;;;;;;;;;33.39;22.26;100366.38;4982550;27;98253;-73
2022/05/31 11:57:21;;;;;;;;;;;;;;;33.96;21.95;100354.16;4982991;27;97913;-64
2022/05/31 11:59:58;;;;;;;;;;;;;;;33.84;21.97;100352.00;4967592;27;98437;-70
2022/05/31 12:02:41;;;;;;;;;;;;;;;34.58;21.18;100346.06;4980088;27;118684;-64
2022/05/31 12:05:19;;;;;;;;;;;;;;;35.53;20.27;100344.19;4980300;28;97929;-72
2022/05/31 12:08:04;;;;;;;;;;;;;;;35.51;20.25;100345.84;4983291;28;97690;-64
2022/05/31 12:10:32;;;;;;;;;;;;;;;33.79;21.32;100346.91;4984403;27;99215;-71
2022/05/31 12:13:04;;;;;;;;;;;;;;;32.83;21.96;100349.34;4979001;27;98570;-64
2022/05/31 12:15:31;;;;;;;;;;;;;;;31.77;22.15;100336.34;4984423;27;98241;-71
2022/05/31 12:18:13;;;;;;;;;;;;;;;31.10;22.88;100337.78;5000632;27;100927;-64
2022/05/31 12:20:57;;;;;;;;;;;;;;;30.75;23.32;100339.63;4998559;27;98693;-64
2022/05/31 12:23:43;;;;;;;;;;;;;;;30.24;23.58;100340.28;4998302;27;118007;-72
2022/05/31 12:26:44;;;;;;;;;;;;;;;30.28;23.63;100338.28;5000418;27;98030;-71
2022/05/31 12:29:18;;;;;;;;;;;;;;;30.96;23.03;100335.88;4958428;28;98448;-72
2022/05/31 12:31:44;;;;;;;;;;;;;;;30.73;23.01;100335.63;4971563;27;99472;-70
2022/05/31 12:34:14;;;;;;;;;;;;;;;30.20;23.43;100331.19;4983144;27;127415;-72
2022/05/31 12:37:05;;;;;;;;;;;;;;;29.73;24.01;100319.41;4982138;27;98494;-71
2022/05/31 12:39:33;;;;;;;;;;;;;;;29.81;24.18;100324.53;4978102;27;97983;-71
2022/05/31 12:42:25;;;;;;;;;;;;;;;31.09;23.42;100318.69;4982730;27;99249;-72
2022/05/31 12:44:51;;;;;;;;;;;;;;;31.88;22.98;100311.19;4958018;27;98233;-64
2022/05/31 12:47:31;;;;;;;;;;;;;;;31.73;23.33;100318.09;4958476;28;121647;-72
2022/05/31 12:50:04;;;;;;;;;;;;;;;31.23;23.76;100324.91;4972119;27;97912;-64
2022/05/31 12:55:00;;;;;;;;;;;;;;;30.20;24.32;100314.50;5000469;27;98532;-64
2022/05/31 13:00:35;;;;;;;;;;;;;;;29.35;24.82;100324.63;4986219;27;97834;-71
2022/05/31 13:03:34;;;;;;;;;;;;;;;28.85;24.76;100319.06;4994703;27;98508;-64
2022/05/31 13:06:11;;;;;;;;;;;;;;;28.41;25.54;100319.38;4969865;28;98293;-64
2022/05/31 13:08:52;;;;;;;;;;;;;;;28.07;26.00;100322.41;4979752;27;98324;-64
2022/05/31 13:20:39;;;;;;;;;;;;;;;30.03;24.45;100314.16;4993347;27;98228;-64
2022/05/31 13:23:13;;;;;;;;;;;;;;;30.53;24.13;100313.91;5000603;27;97962;-71
2022/05/31 13:25:45;;;;;;;;;;;;;;;30.57;24.18;100316.66;4982065;27;99437;-64
2022/05/31 13:28:22;;;;;;;;;;;;;;;30.68;23.90;100317.38;5001355;27;97779;-71
2022/05/31 13:30:49;;;;;;;;;;;;;;;30.38;24.08;100304.09;4997739;27;98376;-71